createdAt,value
2017-12-22T00:00:37.729Z,79.95
2017-12-22T00:03:05.156Z,71.18
2017-12-22T00:05:33.410Z,62.25
2017-12-22T00:08:01.676Z,64.70
2017-12-22T00:10:29.920Z,59.15
2017-12-22T00:12:57.376Z,61.83
2017-12-22T00:15:25.608Z,59.30
2017-12-22T00:17:53.081Z,57.13
2017-12-22T00:20:21.297Z,54.10
2017-12-22T00:22:48.784Z,59.60
2017-12-22T00:25:17.012Z,60.97
2017-12-22T00:27:44.468Z,66.57
2017-12-22T00:30:11.963Z,62.62
2017-12-22T00:32:39.420Z,52.25
2017-12-22T00:35:06.899Z,65.47
2017-12-22T00:37:34.370Z,66.47
2017-12-22T00:40:01.885Z,52.55
2017-12-22T00:42:30.119Z,59.08
2017-12-22T00:44:57.689Z,58.87
2017-12-22T00:47:25.945Z,58.80
2017-12-22T00:49:54.209Z,58.90
2017-12-22T00:52:22.459Z,68.28
2017-12-22T00:54:49.920Z,52.03
2017-12-22T00:57:18.165Z,53.85
2017-12-22T00:59:45.708Z,53.58
2017-12-22T01:02:13.173Z,62.88
2017-12-22T01:04:40.648Z,47.62
2017-12-22T01:07:08.112Z,53.60
2017-12-22T01:09:35.572Z,64.12
2017-12-22T01:12:03.119Z,49.38
2017-12-22T01:14:30.597Z,55.85
2017-12-22T01:17:03.716Z,53.03
2017-12-22T01:19:31.220Z,46.15
2017-12-22T01:21:58.759Z,57.45
2017-12-22T01:24:26.268Z,51.95
2017-12-22T01:26:54.504Z,43.58
2017-12-22T01:29:22.064Z,44.13
2017-12-22T01:31:49.533Z,40.05
2017-12-22T01:34:17.048Z,51.55
2017-12-22T01:36:44.525Z,49.58
2017-12-22T01:39:12.043Z,50.78
2017-12-22T01:41:40.306Z,46.35
2017-12-22T01:44:08.555Z,39.10
2017-12-22T01:46:36.824Z,46.95
2017-12-22T01:49:05.057Z,49.22
2017-12-22T01:51:32.528Z,45.50
2017-12-22T01:54:00.784Z,44.90
2017-12-22T01:56:29.039Z,55.38
2017-12-22T01:58:57.264Z,47.20
2017-12-22T02:01:24.744Z,54.60
2017-12-22T02:03:53.841Z,55.33
2017-12-22T02:06:22.081Z,50.95
2017-12-22T02:08:50.344Z,51.10
2017-12-22T02:11:18.576Z,50.83
2017-12-22T02:13:46.069Z,54.63
2017-12-22T02:16:13.527Z,45.35
2017-12-22T02:18:41.032Z,51.25
2017-12-22T02:21:09.264Z,48.60
2017-12-22T02:23:36.757Z,48.38
2017-12-22T02:26:04.269Z,48.65
2017-12-22T02:28:31.733Z,56.28
2017-12-22T02:30:59.992Z,63.53
2017-12-22T02:33:27.452Z,53.38
2017-12-22T02:35:54.919Z,59.58
2017-12-22T02:38:22.400Z,59.10
2017-12-22T02:40:50.660Z,60.58
2017-12-22T02:43:18.916Z,58.25
2017-12-22T02:45:47.160Z,58.08
2017-12-22T02:48:14.632Z,65.05
2017-12-22T02:50:42.881Z,54.58
2017-12-22T02:53:10.344Z,52.75
2017-12-22T02:55:37.873Z,58.55
2017-12-22T02:58:06.124Z,66.12
2017-12-22T03:00:34.384Z,54.97
2017-12-22T03:03:02.616Z,66.72
2017-12-22T03:05:30.188Z,77.68
2017-12-22T03:07:57.653Z,73.03
2017-12-22T03:10:25.112Z,72.68
2017-12-22T03:12:52.612Z,84.70
2017-12-22T03:15:20.876Z,67.22
2017-12-22T03:17:49.148Z,60.65
2017-12-22T03:20:17.388Z,62.38
2017-12-22T03:22:44.941Z,63.85
2017-12-22T03:25:12.484Z,57.40
2017-12-22T03:27:40.745Z,61.88
2017-12-22T03:30:08.969Z,62.62
2017-12-22T03:32:36.425Z,59.58
2017-12-22T03:35:03.987Z,63.30
2017-12-22T03:37:32.252Z,68.05
2017-12-22T03:40:00.476Z,50.90
2017-12-22T03:42:27.958Z,68.70
2017-12-22T03:44:56.192Z,65.57
2017-12-22T03:47:23.676Z,54.20
2017-12-22T03:49:51.193Z,68.62
2017-12-22T03:52:19.421Z,51.92
2017-12-22T03:54:46.902Z,51.72
2017-12-22T03:57:14.364Z,75.95
2017-12-22T03:59:41.881Z,69.80
2017-12-22T04:02:10.112Z,63.17
2017-12-22T04:04:37.572Z,76.85
2017-12-22T04:07:05.124Z,59.25
2017-12-22T04:09:33.384Z,76.20
2017-12-22T04:12:00.933Z,74.55
2017-12-22T04:14:29.198Z,63.87
2017-12-22T04:16:57.457Z,69.85
2017-12-22T04:19:25.691Z,68.85
2017-12-22T04:21:53.172Z,63.08
2017-12-22T04:24:20.696Z,64.65
2017-12-22T04:26:48.960Z,77.15
2017-12-22T04:29:17.315Z,78.15
2017-12-22T04:31:44.769Z,75.00
2017-12-22T04:34:13.023Z,72.50
2017-12-22T04:36:41.284Z,87.57
2017-12-22T04:39:09.543Z,75.85
2017-12-22T04:41:37.764Z,69.43
2017-12-22T04:44:05.226Z,66.25
2017-12-22T04:46:32.694Z,67.53
2017-12-22T04:49:00.948Z,89.57
2017-12-22T04:51:29.207Z,83.62
2017-12-22T04:53:57.429Z,65.55
2017-12-22T04:56:24.898Z,66.80
2017-12-22T04:58:52.372Z,83.87
2017-12-22T05:01:19.895Z,86.93
2017-12-22T05:03:48.152Z,84.10
2017-12-22T05:06:15.700Z,81.87
2017-12-22T05:08:43.944Z,78.93
2017-12-22T05:11:11.472Z,89.82
2017-12-22T05:13:38.943Z,83.18
2017-12-22T05:16:07.207Z,87.82
2017-12-22T05:18:35.428Z,94.40
2017-12-22T05:21:02.905Z,90.68
2017-12-22T05:23:31.152Z,95.82
2017-12-22T05:25:58.704Z,93.15
2017-12-22T05:28:26.929Z,91.65
2017-12-22T05:30:54.400Z,97.15
2017-12-22T05:33:22.668Z,98.65
2017-12-22T05:35:50.932Z,83.12
2017-12-22T05:38:19.249Z,89.60
2017-12-22T05:40:47.428Z,100.40
2017-12-22T05:43:14.908Z,85.12
2017-12-22T05:45:42.364Z,92.07
2017-12-22T05:48:09.820Z,88.78
2017-12-22T05:50:37.290Z,94.37
2017-12-22T05:53:04.857Z,82.68
2017-12-22T05:55:33.313Z,83.90
2017-12-22T05:58:01.169Z,86.68
2017-12-22T06:00:29.405Z,81.63
2017-12-22T06:02:56.972Z,88.93
2017-12-22T06:05:25.196Z,87.47
2017-12-22T06:07:52.776Z,88.03
2017-12-22T06:10:21.038Z,74.82
2017-12-22T06:12:49.268Z,90.97
2017-12-22T06:15:16.835Z,77.12
2017-12-22T06:17:44.300Z,86.72
2017-12-22T06:20:12.552Z,97.05
2017-12-22T06:22:40.796Z,106.70
2017-12-22T06:25:08.269Z,85.85
2017-12-22T06:27:36.496Z,109.90
2017-12-22T06:30:03.988Z,87.00
2017-12-22T06:32:31.448Z,119.72
2017-12-22T06:34:59.032Z,233.32
2017-12-22T06:37:27.256Z,277.23
2017-12-22T06:39:54.716Z,401.02
2017-12-22T06:42:22.780Z,151.90
2017-12-22T06:44:50.332Z,274.00
2017-12-22T06:47:18.595Z,450.70
2017-12-22T06:49:46.860Z,225.95
2017-12-22T06:52:15.118Z,431.30
2017-12-22T06:54:43.387Z,289.50
2017-12-22T06:57:11.612Z,362.38
2017-12-22T06:59:40.600Z,169.73
2017-12-22T07:02:08.064Z,178.73
2017-12-22T07:04:36.316Z,243.32
2017-12-22T07:07:04.581Z,196.87
2017-12-22T07:09:32.832Z,208.20
2017-12-22T07:12:01.074Z,262.23
2017-12-22T07:14:28.537Z,344.30
2017-12-22T07:16:56.781Z,272.67
2017-12-22T07:19:24.240Z,235.10
2017-12-22T07:21:52.514Z,280.35
2017-12-22T07:24:20.756Z,190.85
2017-12-22T07:26:49.945Z,168.48
2017-12-22T07:29:18.172Z,257.65
2017-12-22T07:31:45.657Z,340.80
2017-12-22T07:34:13.894Z,257.52
2017-12-22T07:36:41.448Z,204.63
2017-12-22T07:39:09.692Z,197.45
2017-12-22T07:41:37.155Z,367.73
2017-12-22T07:44:05.405Z,297.08
2017-12-22T07:46:33.641Z,414.87
2017-12-22T07:49:01.098Z,544.05
2017-12-22T07:51:28.628Z,356.58
2017-12-22T07:53:56.142Z,276.48
2017-12-22T07:56:23.604Z,413.85
2017-12-22T07:58:51.100Z,576.95
2017-12-22T08:01:18.616Z,558.22
2017-12-22T08:03:46.844Z,424.25
2017-12-22T08:06:14.425Z,496.52
2017-12-22T08:08:42.686Z,382.45
2017-12-22T08:11:10.943Z,320.25
2017-12-22T08:13:39.209Z,312.85
2017-12-22T08:16:07.470Z,454.87
2017-12-22T08:18:35.724Z,438.33
2017-12-22T08:21:03.960Z,347.00
2017-12-22T08:23:31.537Z,210.88
2017-12-22T08:25:59.892Z,372.58
2017-12-22T08:28:28.148Z,264.10
2017-12-22T08:30:56.421Z,243.23
2017-12-22T08:33:24.672Z,345.60
2017-12-22T08:35:52.933Z,265.90
2017-12-22T08:38:21.168Z,202.13
2017-12-22T08:40:48.640Z,322.10
2017-12-22T08:43:16.876Z,384.27
2017-12-22T08:45:44.336Z,363.77
2017-12-22T08:48:12.603Z,409.10
2017-12-22T08:50:40.832Z,267.48
2017-12-22T08:53:08.396Z,274.30
2017-12-22T08:55:36.620Z,129.02
2017-12-22T08:58:04.100Z,191.88
2017-12-22T09:00:32.333Z,224.68
2017-12-22T09:02:59.801Z,302.20
2017-12-22T09:05:28.054Z,311.75
2017-12-22T09:07:55.526Z,252.10
2017-12-22T09:10:22.983Z,162.32
2017-12-22T09:12:50.468Z,153.32
2017-12-22T09:15:17.928Z,148.45
2017-12-22T09:17:46.154Z,144.43
2017-12-22T09:20:13.748Z,454.55
2017-12-22T09:22:41.973Z,219.07
2017-12-22T09:25:09.535Z,342.02
2017-12-22T09:27:37.811Z,131.60
2017-12-22T09:30:06.075Z,169.75
2017-12-22T09:32:33.520Z,326.92
2017-12-22T09:35:01.044Z,344.70
2017-12-22T09:37:29.303Z,155.27
2017-12-22T09:39:57.660Z,208.65
2017-12-22T09:42:25.895Z,193.52
2017-12-22T09:44:53.369Z,121.60
2017-12-22T09:47:21.628Z,110.30
2017-12-22T09:49:49.868Z,70.65
2017-12-22T09:52:17.339Z,63.08
2017-12-22T09:54:45.688Z,66.57
2017-12-22T09:57:14.053Z,54.60
2017-12-22T09:59:42.284Z,64.10
2017-12-22T10:02:09.760Z,57.03
2017-12-22T10:04:38.003Z,61.03
2017-12-22T10:07:05.560Z,62.33
2017-12-22T10:09:33.816Z,67.85
2017-12-22T10:12:02.061Z,71.95
2017-12-22T10:14:29.560Z,48.20
2017-12-22T10:16:57.064Z,55.63
2017-12-22T10:19:25.323Z,52.55
2017-12-22T10:21:53.557Z,54.20
2017-12-22T10:24:21.843Z,56.05
2017-12-22T10:26:50.100Z,52.70
2017-12-22T10:29:18.343Z,62.15
2017-12-22T10:31:45.824Z,55.28
2017-12-22T10:34:13.293Z,67.87
2017-12-22T10:36:40.806Z,71.82
2017-12-22T10:39:08.337Z,59.08
2017-12-22T10:41:36.569Z,65.55
2017-12-22T10:44:04.041Z,67.45
2017-12-22T10:46:32.281Z,65.75
2017-12-22T10:48:59.840Z,53.47
2017-12-22T10:51:28.097Z,60.35
2017-12-22T10:53:56.344Z,62.88
2017-12-22T10:56:23.902Z,63.25
2017-12-22T10:58:52.572Z,56.10
2017-12-22T11:01:20.800Z,60.83
2017-12-22T11:03:48.372Z,57.80
2017-12-22T11:06:16.732Z,52.95
2017-12-22T11:08:44.997Z,55.72
2017-12-22T11:11:13.252Z,61.40
2017-12-22T11:13:41.625Z,51.95
2017-12-22T11:16:09.878Z,57.13
2017-12-22T11:18:38.175Z,54.88
2017-12-22T11:21:05.684Z,61.80
2017-12-22T11:23:33.948Z,59.10
2017-12-22T11:26:02.301Z,59.25
2017-12-22T11:28:30.664Z,57.83
2017-12-22T11:30:58.903Z,62.55
2017-12-22T11:33:26.408Z,59.00
2017-12-22T11:35:53.938Z,53.38
2017-12-22T11:38:21.412Z,46.63
2017-12-22T11:40:48.897Z,53.87
2017-12-22T11:43:16.400Z,47.58
2017-12-22T11:45:44.666Z,50.53
2017-12-22T11:48:12.909Z,51.45
2017-12-22T11:50:40.396Z,49.55
2017-12-22T11:53:07.928Z,49.25
2017-12-22T11:55:36.164Z,43.85
2017-12-22T11:58:03.724Z,44.20
2017-12-22T12:00:31.962Z,46.37
2017-12-22T12:02:59.432Z,43.67
2017-12-22T12:05:26.960Z,43.35
2017-12-22T12:07:54.427Z,38.15
2017-12-22T12:10:21.900Z,41.28
2017-12-22T12:12:51.477Z,45.70
2017-12-22T12:15:18.967Z,40.65
2017-12-22T12:17:47.231Z,41.65
2017-12-22T12:20:15.465Z,40.72
2017-12-22T12:22:43.036Z,29.58
2017-12-22T12:25:10.592Z,34.55
2017-12-22T12:27:38.840Z,36.97
2017-12-22T12:30:06.301Z,35.60
2017-12-22T12:32:34.562Z,30.95
2017-12-22T12:35:02.971Z,32.45
2017-12-22T12:37:30.432Z,32.75
2017-12-22T12:39:57.911Z,36.47
2017-12-22T12:42:26.156Z,35.28
2017-12-22T12:44:54.424Z,37.85
2017-12-22T12:47:22.697Z,31.23
2017-12-22T12:49:50.164Z,39.97
2017-12-22T12:52:17.667Z,31.90
2017-12-22T12:54:45.172Z,32.88
2017-12-22T12:57:13.403Z,35.00
2017-12-22T12:59:40.879Z,31.52
2017-12-22T13:02:08.505Z,32.65
2017-12-22T13:04:36.019Z,36.97
2017-12-22T13:07:04.287Z,30.90
2017-12-22T13:09:32.540Z,31.10
2017-12-22T13:12:00.909Z,30.17
2017-12-22T13:14:29.158Z,27.85
2017-12-22T13:16:57.395Z,27.60
2017-12-22T13:19:24.896Z,26.92
2017-12-22T13:21:52.364Z,25.40
2017-12-22T13:24:20.615Z,28.80
2017-12-22T13:26:48.868Z,24.90
2017-12-22T13:29:17.135Z,29.55
2017-12-22T13:31:45.372Z,31.90
2017-12-22T13:34:12.937Z,34.60
2017-12-22T13:36:41.171Z,28.75
2017-12-22T13:39:08.642Z,34.35
2017-12-22T13:41:36.892Z,32.55
2017-12-22T13:44:04.398Z,29.45
2017-12-22T13:46:31.868Z,30.73
2017-12-22T13:48:59.336Z,35.38
2017-12-22T13:51:27.587Z,32.55
2017-12-22T13:53:55.845Z,26.17
2017-12-22T13:56:24.119Z,31.05
2017-12-22T13:58:52.359Z,27.70
2017-12-22T14:01:19.828Z,29.95
2017-12-22T14:03:47.351Z,29.65
2017-12-22T14:06:15.604Z,36.40
2017-12-22T14:08:43.160Z,27.27
2017-12-22T14:11:11.416Z,29.23
2017-12-22T14:13:39.658Z,30.88
2017-12-22T14:16:07.220Z,29.63
2017-12-22T14:18:35.503Z,29.12
2017-12-22T14:21:02.973Z,29.25
2017-12-22T14:23:30.457Z,28.58
2017-12-22T14:25:58.697Z,29.63
2017-12-22T14:28:26.160Z,27.42
2017-12-22T14:30:54.472Z,31.45
2017-12-22T14:33:21.952Z,31.73
2017-12-22T14:35:50.234Z,33.17
2017-12-22T14:38:18.465Z,33.72
2017-12-22T14:40:45.939Z,27.75
2017-12-22T14:43:14.164Z,26.52
2017-12-22T14:45:41.671Z,30.08
2017-12-22T14:48:09.127Z,32.28
2017-12-22T14:50:37.408Z,30.05
2017-12-22T14:53:05.695Z,34.75
2017-12-22T14:55:33.927Z,29.35
2017-12-22T14:58:02.161Z,32.92
2017-12-22T15:00:30.660Z,30.02
2017-12-22T15:02:58.916Z,34.20
2017-12-22T15:05:27.156Z,37.55
2017-12-22T15:07:54.717Z,30.90
2017-12-22T15:10:22.983Z,28.87
2017-12-22T15:12:52.420Z,26.62
2017-12-22T15:15:20.009Z,28.92
2017-12-22T15:17:48.240Z,36.72
2017-12-22T15:20:15.812Z,31.75
2017-12-22T15:22:44.072Z,29.12
2017-12-22T15:25:12.334Z,26.80
2017-12-22T15:27:40.576Z,28.50
2017-12-22T15:30:08.148Z,30.42
2017-12-22T15:32:36.385Z,32.15
2017-12-22T15:35:03.869Z,29.92
2017-12-22T15:37:32.208Z,33.33
2017-12-22T15:40:00.517Z,27.73
2017-12-22T15:42:27.945Z,33.95
2017-12-22T15:44:55.504Z,34.38
2017-12-22T15:47:23.730Z,25.98
2017-12-22T15:49:51.214Z,31.70
2017-12-22T15:52:19.474Z,29.10
2017-12-22T15:54:47.020Z,26.15
2017-12-22T15:57:15.271Z,23.10
2017-12-22T16:02:33.299Z,24.87
2017-12-22T16:05:01.538Z,29.50
2017-12-22T16:07:29.003Z,27.17
2017-12-22T16:09:57.232Z,33.30
2017-12-22T16:12:24.802Z,23.60
2017-12-22T16:14:53.024Z,27.83
2017-12-22T16:17:20.502Z,28.38
2017-12-22T16:19:48.736Z,28.90
2017-12-22T16:22:16.204Z,25.95
2017-12-22T16:24:43.745Z,25.80
2017-12-22T16:27:12.005Z,28.30
2017-12-22T16:29:39.467Z,31.10
2017-12-22T16:32:06.988Z,28.87
2017-12-22T16:34:35.213Z,25.98
2017-12-22T16:37:02.675Z,28.98
2017-12-22T16:39:30.234Z,28.20
2017-12-22T16:41:57.809Z,29.30
2017-12-22T16:44:25.328Z,32.38
2017-12-22T16:46:52.808Z,31.87
2017-12-22T16:49:21.059Z,26.87
2017-12-22T16:51:49.291Z,30.27
2017-12-22T16:54:16.816Z,28.90
2017-12-22T16:56:44.317Z,29.85
2017-12-22T16:59:12.676Z,30.42
2017-12-22T17:01:40.936Z,33.33
2017-12-22T17:04:09.208Z,32.92
2017-12-22T17:06:36.680Z,29.80
2017-12-22T17:09:04.179Z,34.22
2017-12-22T17:11:32.415Z,29.67
2017-12-22T17:13:59.893Z,32.10
2017-12-22T17:16:28.131Z,35.08
2017-12-22T17:18:55.616Z,32.92
2017-12-22T17:21:23.133Z,36.95
2017-12-22T17:23:51.360Z,34.78
2017-12-22T17:26:18.876Z,29.65
2017-12-22T17:28:46.357Z,34.20
2017-12-22T17:34:07.760Z,35.53
2017-12-22T17:36:35.220Z,32.13
2017-12-22T17:39:05.088Z,33.83
2017-12-22T17:41:32.656Z,34.88
2017-12-22T17:44:00.902Z,37.97
2017-12-22T17:46:28.367Z,30.05
2017-12-22T17:48:56.717Z,31.60
2017-12-22T17:51:24.946Z,36.47
2017-12-22T17:53:52.416Z,33.15
2017-12-22T17:56:20.682Z,32.28
2017-12-22T17:58:48.908Z,39.70
2017-12-22T18:01:16.490Z,35.42
2017-12-22T18:03:43.968Z,33.75
2017-12-22T18:06:11.467Z,37.80
2017-12-22T18:08:39.693Z,34.38
2017-12-22T18:11:07.180Z,34.78
2017-12-22T18:13:35.433Z,34.70
2017-12-22T18:16:04.871Z,32.42
2017-12-22T18:18:32.426Z,35.05
2017-12-22T18:20:59.904Z,31.00
2017-12-22T18:23:28.998Z,30.05
2017-12-22T18:25:56.571Z,38.03
2017-12-22T18:28:24.824Z,32.45
2017-12-22T18:30:53.083Z,32.17
2017-12-22T18:33:21.318Z,35.05
2017-12-22T18:35:48.787Z,40.12
2017-12-22T18:38:17.021Z,37.28
2017-12-22T18:40:44.487Z,41.30
2017-12-22T18:43:12.724Z,32.75
2017-12-22T18:45:40.183Z,34.05
2017-12-22T18:48:08.434Z,37.00
2017-12-22T18:50:35.900Z,39.10
2017-12-22T18:53:04.147Z,37.03
2017-12-22T18:55:32.401Z,34.55
2017-12-22T18:58:00.060Z,37.00
2017-12-22T19:00:28.284Z,39.20
2017-12-22T19:02:55.861Z,41.88
2017-12-22T19:05:24.116Z,35.15
2017-12-22T19:07:52.346Z,42.88
2017-12-22T19:10:19.817Z,42.88
2017-12-22T19:12:48.054Z,40.17
2017-12-22T19:15:15.520Z,38.45
2017-12-22T19:17:43.009Z,50.28
2017-12-22T19:20:10.516Z,50.25
2017-12-22T19:22:38.746Z,43.30
2017-12-22T19:25:06.248Z,41.33
2017-12-22T19:27:34.488Z,41.78
2017-12-22T19:30:01.969Z,41.05
2017-12-22T19:32:29.492Z,43.30
2017-12-22T19:34:56.992Z,42.72
2017-12-22T19:37:25.245Z,41.97
2017-12-22T19:39:53.512Z,52.00
2017-12-22T19:42:21.757Z,49.65
2017-12-22T19:44:50.852Z,53.33
2017-12-22T19:47:19.116Z,53.92
2017-12-22T19:49:47.367Z,47.20
2017-12-22T19:52:15.605Z,48.83
2017-12-22T19:54:43.177Z,47.30
2017-12-22T19:57:11.536Z,49.85
2017-12-22T19:59:39.763Z,49.65
2017-12-22T20:02:07.236Z,42.05
2017-12-22T20:04:35.472Z,51.35
2017-12-22T20:07:03.036Z,50.12
2017-12-22T20:09:31.296Z,46.08
2017-12-22T20:11:59.564Z,49.30
2017-12-22T20:14:27.784Z,46.10
2017-12-22T20:16:55.245Z,42.88
2017-12-22T20:19:22.805Z,43.25
2017-12-22T20:21:51.056Z,49.35
2017-12-22T20:24:18.608Z,44.45
2017-12-22T20:26:46.863Z,53.47
2017-12-22T20:29:15.125Z,42.28
2017-12-22T20:31:43.392Z,45.58
2017-12-22T20:34:11.616Z,46.53
2017-12-22T20:36:39.193Z,45.25
2017-12-22T20:39:07.436Z,50.17
2017-12-22T20:41:34.897Z,45.75
2017-12-22T20:44:03.132Z,44.53
2017-12-22T20:46:30.703Z,44.25
2017-12-22T20:48:58.956Z,50.63
2017-12-22T20:51:27.184Z,52.90
2017-12-22T20:53:54.649Z,49.05
2017-12-22T20:56:22.201Z,50.58
2017-12-22T20:58:50.461Z,47.42
2017-12-22T21:01:17.920Z,51.95
2017-12-22T21:03:45.444Z,55.65
2017-12-22T21:06:13.676Z,48.40
2017-12-22T21:08:41.153Z,53.78
2017-12-22T21:11:09.404Z,54.55
2017-12-22T21:13:36.868Z,48.92
2017-12-22T21:16:04.392Z,55.33
2017-12-22T21:18:32.628Z,52.10
2017-12-22T21:21:00.093Z,55.90
2017-12-22T21:23:28.324Z,55.17
2017-12-22T21:25:55.812Z,58.25
2017-12-22T21:28:24.105Z,52.85
2017-12-22T21:30:51.602Z,48.95
2017-12-22T21:33:19.857Z,50.75
2017-12-22T21:35:48.079Z,54.28
2017-12-22T21:38:15.544Z,51.80
2017-12-22T21:40:43.116Z,55.92
2017-12-22T21:43:11.369Z,58.22
2017-12-22T21:45:39.609Z,59.00
2017-12-22T21:48:07.067Z,57.40
2017-12-22T21:50:35.313Z,53.20
2017-12-22T21:53:02.773Z,64.95
2017-12-22T21:55:31.016Z,56.92
2017-12-22T22:00:50.077Z,59.08
2017-12-22T22:03:18.336Z,53.28
2017-12-22T22:05:46.591Z,57.38
2017-12-22T22:08:14.132Z,63.00
2017-12-22T22:10:42.399Z,63.38
2017-12-22T22:13:10.652Z,59.55
2017-12-22T22:15:38.200Z,60.72
2017-12-22T22:18:06.427Z,64.03
2017-12-22T22:20:34.281Z,59.63
2017-12-22T22:23:01.752Z,57.53
2017-12-22T22:25:29.984Z,62.70
2017-12-22T22:27:57.476Z,66.00
2017-12-22T22:30:24.996Z,68.93
2017-12-22T22:32:52.482Z,68.25
2017-12-22T22:35:19.948Z,68.62
2017-12-22T22:37:47.408Z,59.65
2017-12-22T22:40:14.874Z,61.10
2017-12-22T22:42:43.099Z,70.40
2017-12-22T22:45:10.564Z,72.25
2017-12-22T22:47:38.109Z,78.40
2017-12-22T22:50:06.372Z,81.57
2017-12-22T22:52:34.631Z,77.65
2017-12-22T22:55:02.856Z,58.97
2017-12-22T22:57:30.349Z,61.08
2017-12-22T22:59:57.832Z,66.62
2017-12-22T23:02:25.320Z,68.32
2017-12-22T23:04:53.564Z,62.78
2017-12-22T23:07:21.033Z,70.65
2017-12-22T23:09:49.276Z,67.22
2017-12-22T23:12:17.516Z,61.85
2017-12-22T23:14:44.990Z,76.65
2017-12-22T23:17:13.390Z,63.15
2017-12-22T23:19:40.893Z,62.45
2017-12-22T23:22:09.208Z,60.17
2017-12-22T23:24:36.676Z,71.25
2017-12-22T23:27:04.228Z,67.97
2017-12-22T23:29:32.515Z,59.70
2017-12-22T23:31:59.977Z,62.58
2017-12-22T23:34:27.481Z,62.15
2017-12-22T23:36:55.720Z,60.38
2017-12-22T23:39:23.941Z,61.70
2017-12-22T23:41:51.412Z,63.33
2017-12-22T23:44:18.871Z,63.83
2017-12-22T23:46:46.375Z,60.22
2017-12-22T23:49:13.866Z,58.63
2017-12-22T23:51:42.124Z,60.88
2017-12-22T23:54:10.379Z,53.63
2017-12-22T23:56:37.844Z,67.80
